createdAt,value
2023-05-23T00:02:59.127Z,99229.83
2023-05-23T00:06:01.305Z,99228.31
2023-05-23T00:09:03.098Z,99228.20
2023-05-23T00:12:05.201Z,99224.95
2023-05-23T00:15:07.800Z,99226.45
2023-05-23T00:18:10.612Z,99228.20
2023-05-23T00:21:12.470Z,99229.40
2023-05-23T00:24:14.272Z,99227.46
2023-05-23T00:27:15.973Z,99225.40
2023-05-23T00:30:17.641Z,99223.80
2023-05-23T00:33:19.281Z,99221.33
2023-05-23T00:36:20.831Z,99216.41
2023-05-23T00:39:22.304Z,99220.33
2023-05-23T00:42:23.970Z,99217.83
2023-05-23T00:45:25.697Z,99219.96
2023-05-23T00:48:27.779Z,99214.00
2023-05-23T00:51:29.406Z,99209.27
2023-05-23T00:54:31.289Z,99209.29
2023-05-23T00:57:32.953Z,99206.10
2023-05-23T01:00:34.781Z,99204.77
2023-05-23T01:03:36.511Z,99202.59
2023-05-23T01:06:38.129Z,99203.77
2023-05-23T01:09:39.800Z,99199.53
2023-05-23T01:13:07.555Z,99195.35
2023-05-23T01:16:16.473Z,99196.05
2023-05-23T01:19:30.161Z,99195.64
2023-05-23T01:22:57.169Z,99200.84
2023-05-23T01:26:07.729Z,99200.51
2023-05-23T01:29:15.492Z,99201.27
2023-05-23T01:32:17.644Z,99195.48
2023-05-23T01:35:25.620Z,99200.10
2023-05-23T01:38:27.382Z,99193.45
2023-05-23T01:41:29.019Z,99191.33
2023-05-23T01:44:31.178Z,99190.10
2023-05-23T01:47:33.215Z,99192.61
2023-05-23T01:50:35.096Z,99193.10
2023-05-23T01:53:37.268Z,99190.13
2023-05-23T01:56:39.840Z,99188.58
2023-05-23T01:59:41.569Z,99191.11
2023-05-23T02:02:43.246Z,99192.48
2023-05-23T02:05:44.891Z,99191.70
2023-05-23T02:08:46.567Z,99186.94
2023-05-23T02:11:48.170Z,99186.46
2023-05-23T02:14:50.063Z,99181.54
2023-05-23T02:17:51.738Z,99178.45
2023-05-23T02:20:53.426Z,99172.48
2023-05-23T02:23:55.082Z,99171.23
2023-05-23T02:26:56.602Z,99171.40
2023-05-23T02:29:58.182Z,99170.55
2023-05-23T02:32:59.810Z,99171.59
2023-05-23T02:36:01.668Z,99172.55
2023-05-23T02:39:03.953Z,99173.73
2023-05-23T02:42:05.817Z,99171.87
2023-05-23T02:45:08.177Z,99168.10
2023-05-23T02:48:10.021Z,99165.70
2023-05-23T02:51:11.774Z,99163.08
2023-05-23T02:54:13.552Z,99164.09
2023-05-23T02:57:15.152Z,99167.33
2023-05-23T03:00:17.069Z,99168.95
2023-05-23T03:03:18.894Z,99171.80
2023-05-23T03:06:20.653Z,99170.23
2023-05-23T03:09:22.352Z,99167.86
2023-05-23T03:12:24.258Z,99165.11
2023-05-23T03:15:25.974Z,99159.48
2023-05-23T03:18:27.763Z,99155.88
2023-05-23T03:21:29.583Z,99157.02
2023-05-23T03:24:31.445Z,99155.39
2023-05-23T03:27:33.338Z,99154.70
2023-05-23T03:30:35.158Z,99152.05
2023-05-23T03:33:39.651Z,99152.91
2023-05-23T03:36:42.247Z,99155.43
2023-05-23T03:39:44.046Z,99153.09
2023-05-23T03:42:48.586Z,99146.79
2023-05-23T03:45:50.556Z,99150.98
2023-05-23T03:48:52.358Z,99149.84
2023-05-23T03:51:54.019Z,99145.21
2023-05-23T03:54:55.780Z,99141.38
2023-05-23T03:57:57.464Z,99137.78
2023-05-23T04:01:01.258Z,99140.96
2023-05-23T04:04:03.814Z,99144.48
2023-05-23T04:07:06.106Z,99145.30
2023-05-23T04:10:08.618Z,99137.58
2023-05-23T04:13:10.598Z,99137.63
2023-05-23T04:16:12.285Z,99139.27
2023-05-23T04:19:13.958Z,99134.27
2023-05-23T04:22:15.642Z,99139.23
2023-05-23T04:25:17.424Z,99140.55
2023-05-23T04:28:19.227Z,99139.77
2023-05-23T04:31:21.816Z,99140.72
2023-05-23T04:34:23.555Z,99143.95
2023-05-23T04:37:25.118Z,99146.70
2023-05-23T04:40:26.727Z,99145.47
2023-05-23T04:43:28.285Z,99145.54
2023-05-23T04:46:30.210Z,99144.05
2023-05-23T04:49:32.067Z,99141.88
2023-05-23T04:52:33.754Z,99138.81
2023-05-23T04:55:35.579Z,99141.30
2023-05-23T04:58:37.194Z,99137.92
2023-05-23T05:01:39.041Z,99139.21
2023-05-23T05:04:40.798Z,99135.98
2023-05-23T05:07:42.701Z,99131.08
2023-05-23T05:10:44.437Z,99130.24
2023-05-23T05:13:46.092Z,99133.29
2023-05-23T05:16:47.854Z,99133.03
2023-05-23T05:19:49.488Z,99126.64
2023-05-23T05:25:20.516Z,99116.01
2023-05-23T05:28:22.394Z,99116.52
2023-05-23T05:31:23.964Z,99112.67
2023-05-23T05:34:25.574Z,99115.75
2023-05-23T05:37:27.275Z,99115.04
2023-05-23T05:40:28.889Z,99113.54
2023-05-23T05:43:30.881Z,99115.96
2023-05-23T05:46:32.483Z,99111.87
2023-05-23T05:49:34.204Z,99114.84
2023-05-23T05:52:35.978Z,99115.27
2023-05-23T05:55:37.693Z,99110.13
2023-05-23T05:58:39.374Z,99108.76
2023-05-23T06:01:40.993Z,99108.98
2023-05-23T06:04:42.817Z,99110.38
2023-05-23T06:07:44.495Z,99109.46
2023-05-23T06:10:46.140Z,99107.61
2023-05-23T06:13:47.706Z,99102.73
2023-05-23T06:16:49.537Z,99099.74
2023-05-23T06:19:51.535Z,99096.03
2023-05-23T06:22:53.296Z,99095.35
2023-05-23T06:25:55.078Z,99094.73
2023-05-23T06:28:56.756Z,99094.66
2023-05-23T06:31:58.412Z,99092.20
2023-05-23T06:35:00.180Z,99094.21
2023-05-23T06:38:01.825Z,99091.80
2023-05-23T06:41:03.580Z,99092.42
2023-05-23T06:44:05.312Z,99087.19
2023-05-23T06:47:06.998Z,99082.81
2023-05-23T06:50:09.068Z,99084.30
2023-05-23T06:53:10.821Z,99081.52
2023-05-23T06:56:12.390Z,99082.23
2023-05-23T06:59:14.087Z,99077.80
2023-05-23T07:02:15.706Z,99077.05
2023-05-23T07:05:17.653Z,99073.04
2023-05-23T07:08:19.457Z,99070.38
2023-05-23T07:11:21.874Z,99068.56
2023-05-23T07:14:23.556Z,99067.55
2023-05-23T07:17:25.173Z,99067.20
2023-05-23T07:20:26.934Z,99065.96
2023-05-23T07:23:32.857Z,99062.58
2023-05-23T07:26:34.453Z,99063.42
2023-05-23T07:29:36.115Z,99060.17
2023-05-23T07:32:37.860Z,99057.06
2023-05-23T07:35:39.615Z,99061.42
2023-05-23T07:38:41.274Z,99059.96
2023-05-23T07:41:43.061Z,99058.71
2023-05-23T07:44:44.687Z,99060.14
2023-05-23T07:47:46.329Z,99060.90
2023-05-23T07:50:47.923Z,99058.39
2023-05-23T07:53:49.621Z,99055.30
2023-05-23T07:56:52.062Z,99053.02
2023-05-23T07:59:54.146Z,99053.26
2023-05-23T08:02:55.893Z,99051.93
2023-05-23T08:05:57.976Z,99050.42
2023-05-23T08:09:01.216Z,99049.77
2023-05-23T08:12:02.886Z,99050.49
2023-05-23T08:15:06.219Z,99055.42
2023-05-23T08:18:07.999Z,99058.09
2023-05-23T08:21:09.760Z,99054.40
2023-05-23T08:24:12.793Z,99053.27
2023-05-23T08:27:16.444Z,99052.59
2023-05-23T08:30:18.223Z,99058.49
2023-05-23T08:33:20.171Z,99061.11
2023-05-23T08:36:22.118Z,99059.16
2023-05-23T08:39:23.855Z,99059.70
2023-05-23T08:42:26.714Z,99058.61
2023-05-23T08:45:28.506Z,99057.08
2023-05-23T08:48:30.471Z,99056.43
2023-05-23T08:51:32.604Z,99057.23
2023-05-23T08:54:34.959Z,99059.30
2023-05-23T08:57:36.892Z,99057.04
2023-05-23T09:00:38.774Z,99057.27
2023-05-23T09:03:41.042Z,99055.80
2023-05-23T09:06:42.869Z,99056.38
2023-05-23T09:09:45.012Z,99054.41
2023-05-23T09:12:46.683Z,99050.92
2023-05-23T09:16:04.740Z,99051.49
2023-05-23T09:19:14.047Z,99048.73
2023-05-23T09:22:15.733Z,99049.01
2023-05-23T09:25:17.564Z,99048.80
2023-05-23T09:28:19.251Z,99045.86
2023-05-23T09:31:26.807Z,99044.39
2023-05-23T09:34:28.684Z,99041.63
2023-05-23T09:37:38.878Z,99045.29
2023-05-23T09:40:45.326Z,99041.58
2023-05-23T09:43:51.661Z,99045.92
2023-05-23T09:46:53.435Z,99040.45
2023-05-23T09:49:55.414Z,99040.87
2023-05-23T09:52:56.999Z,99035.59
2023-05-23T09:56:03.346Z,99036.41
2023-05-23T09:59:05.747Z,99032.45
2023-05-23T10:02:09.101Z,99028.67
2023-05-23T10:05:20.915Z,99019.43
2023-05-23T10:08:44.474Z,99021.33
2023-05-23T10:12:11.462Z,99016.92
2023-05-23T10:15:15.425Z,99007.80
2023-05-23T10:18:25.048Z,99011.00
2023-05-23T10:21:59.503Z,99004.55
2023-05-23T10:25:01.856Z,99002.76
2023-05-23T10:28:04.520Z,99003.73
2023-05-23T10:31:06.613Z,98996.17
2023-05-23T10:34:30.680Z,98996.33
2023-05-23T10:38:00.168Z,98996.33
2023-05-23T10:41:04.561Z,98992.77
2023-05-23T10:44:28.671Z,98989.16
2023-05-23T10:47:30.584Z,98984.48
2023-05-23T10:50:34.735Z,98984.23
2023-05-23T10:53:38.680Z,98978.77
2023-05-23T10:56:40.298Z,98974.54
2023-05-23T10:59:42.151Z,98968.80
2023-05-23T11:02:54.032Z,98965.45
2023-05-23T11:05:55.774Z,98962.08
2023-05-23T11:09:07.216Z,98958.27
2023-05-23T11:12:09.488Z,98955.63
2023-05-23T11:15:17.251Z,98949.90
2023-05-23T11:18:24.006Z,98945.22
2023-05-23T11:21:25.930Z,98941.37
2023-05-23T11:24:53.775Z,98943.21
2023-05-23T11:27:55.435Z,98944.46
2023-05-23T11:30:57.141Z,98940.70
2023-05-23T11:33:58.915Z,98942.19
2023-05-23T11:37:00.694Z,98935.95
2023-05-23T11:40:31.827Z,98932.69
2023-05-23T11:43:33.661Z,98925.73
2023-05-23T11:46:35.312Z,98922.00
2023-05-23T11:49:38.537Z,98917.21
2023-05-23T11:52:40.492Z,98908.21
2023-05-23T11:55:48.721Z,98902.69
2023-05-23T11:58:50.754Z,98907.64
2023-05-23T12:01:53.035Z,98906.36
2023-05-23T12:04:54.764Z,98906.71
2023-05-23T12:07:56.851Z,98904.59
2023-05-23T12:11:00.509Z,98900.58
2023-05-23T12:14:03.620Z,98902.27
2023-05-23T12:17:05.270Z,98899.43
2023-05-23T12:20:07.494Z,98894.73
2023-05-23T12:23:09.282Z,98888.63
2023-05-23T12:26:10.902Z,98890.00
2023-05-23T12:29:12.571Z,98890.44
2023-05-23T12:32:14.226Z,98892.70
2023-05-23T12:35:16.092Z,98886.73
2023-05-23T12:38:17.773Z,98893.08
2023-05-23T12:41:20.824Z,98886.10
2023-05-23T12:44:22.703Z,98883.85
2023-05-23T12:47:24.458Z,98881.70
2023-05-23T12:50:26.492Z,98883.19
2023-05-23T12:53:29.846Z,98877.05
2023-05-23T12:56:31.604Z,98874.16
2023-05-23T12:59:33.209Z,98876.90
2023-05-23T13:02:34.904Z,98877.36
2023-05-23T13:05:36.502Z,98872.04
2023-05-23T13:08:38.141Z,98870.85
2023-05-23T13:11:39.771Z,98871.97
2023-05-23T13:14:42.159Z,98870.40
2023-05-23T13:17:49.544Z,98869.50
2023-05-23T13:20:51.740Z,98869.92
2023-05-23T13:23:53.517Z,98872.54
2023-05-23T13:26:55.185Z,98874.71
2023-05-23T13:29:56.773Z,98874.42
2023-05-23T13:32:58.746Z,98871.10
2023-05-23T13:36:00.498Z,98874.33
2023-05-23T13:39:02.395Z,98877.84
2023-05-23T13:42:04.166Z,98878.34
2023-05-23T13:45:06.481Z,98873.70
2023-05-23T13:48:08.133Z,98872.14
2023-05-23T13:51:10.043Z,98862.38
2023-05-23T13:54:11.920Z,98862.56
2023-05-23T13:57:13.630Z,98857.56
2023-05-23T14:00:15.950Z,98856.14
2023-05-23T14:03:17.639Z,98854.92
2023-05-23T14:06:19.301Z,98858.59
2023-05-23T14:09:23.087Z,98856.63
2023-05-23T14:12:25.664Z,98859.38
2023-05-23T14:15:27.339Z,98862.94
2023-05-23T14:18:29.441Z,98861.03
2023-05-23T14:21:31.115Z,98858.33
2023-05-23T14:24:32.773Z,98857.95
2023-05-23T14:27:34.561Z,98855.97
2023-05-23T14:30:36.144Z,98860.55
2023-05-23T14:33:37.706Z,98857.92
2023-05-23T14:36:39.417Z,98859.05
2023-05-23T14:39:41.369Z,98861.27
2023-05-23T14:42:43.421Z,98866.73
2023-05-23T14:45:45.413Z,98868.10
2023-05-23T14:48:47.417Z,98863.92
2023-05-23T14:51:51.485Z,98868.27
2023-05-23T14:54:54.012Z,98867.41
2023-05-23T14:57:55.657Z,98864.91
2023-05-23T15:00:57.592Z,98864.89
2023-05-23T15:03:59.199Z,98866.01
2023-05-23T15:07:00.975Z,98867.61
2023-05-23T15:10:03.113Z,98864.58
2023-05-23T15:13:04.909Z,98859.52
2023-05-23T15:16:06.799Z,98860.92
2023-05-23T15:19:08.483Z,98860.48
2023-05-23T15:22:18.441Z,98861.35
2023-05-23T15:25:33.897Z,98856.73
2023-05-23T15:28:45.792Z,98856.93
2023-05-23T15:31:47.363Z,98859.68
2023-05-23T15:34:49.033Z,98858.93
2023-05-23T15:37:50.650Z,98859.20
2023-05-23T15:40:52.353Z,98855.16
2023-05-23T15:43:53.911Z,98855.61
2023-05-23T15:46:55.904Z,98858.61
2023-05-23T15:49:57.580Z,98854.19
2023-05-23T15:52:59.230Z,98856.01
2023-05-23T15:56:00.857Z,98856.50
2023-05-23T15:59:02.610Z,98854.94
2023-05-23T16:02:04.513Z,98848.49
2023-05-23T16:05:06.604Z,98844.70
2023-05-23T16:08:08.248Z,98838.58
2023-05-23T16:11:09.995Z,98837.46
2023-05-23T16:14:11.635Z,98833.39
2023-05-23T16:17:13.339Z,98831.51
2023-05-23T16:20:15.148Z,98835.71
2023-05-23T16:23:16.861Z,98837.90
2023-05-23T16:26:18.662Z,98841.45
2023-05-23T16:29:20.221Z,98842.52
2023-05-23T16:32:22.011Z,98841.95
2023-05-23T16:35:24.000Z,98841.95
2023-05-23T16:38:25.859Z,98846.29
2023-05-23T16:41:27.579Z,98848.72
2023-05-23T16:44:29.272Z,98850.57
2023-05-23T16:47:31.380Z,98846.77
2023-05-23T16:50:32.980Z,98845.70
2023-05-23T16:53:34.713Z,98843.85
2023-05-23T16:56:36.418Z,98846.30
2023-05-23T16:59:37.992Z,98839.11
2023-05-23T17:02:39.904Z,98839.02
2023-05-23T17:05:41.960Z,98845.07
2023-05-23T17:08:44.387Z,98842.50
2023-05-23T17:11:46.917Z,98842.64
2023-05-23T17:14:48.862Z,98845.98
2023-05-23T17:17:51.053Z,98850.21
2023-05-23T17:20:52.992Z,98852.55
2023-05-23T17:23:55.053Z,98848.92
2023-05-23T17:26:56.969Z,98856.64
2023-05-23T17:29:58.772Z,98859.55
2023-05-23T17:33:00.552Z,98865.55
2023-05-23T17:36:02.927Z,98866.02
2023-05-23T17:39:04.772Z,98866.40
2023-05-23T17:42:11.792Z,98873.81
2023-05-23T17:45:13.702Z,98872.17
2023-05-23T17:48:15.668Z,98868.42
2023-05-23T17:51:17.539Z,98871.50
2023-05-23T17:54:19.421Z,98877.54
2023-05-23T17:57:21.386Z,98882.79
2023-05-23T18:00:23.567Z,98881.55
2023-05-23T18:03:25.382Z,98882.30
2023-05-23T18:06:27.413Z,98887.03
2023-05-23T18:09:29.154Z,98889.58
2023-05-23T18:12:31.175Z,98892.29
2023-05-23T18:15:33.225Z,98897.70
2023-05-23T18:18:35.130Z,98903.17
2023-05-23T18:21:36.972Z,98906.75
2023-05-23T18:24:38.902Z,98907.20
2023-05-23T18:27:40.717Z,98910.33
2023-05-23T18:30:42.735Z,98912.98
2023-05-23T18:33:44.874Z,98911.29
2023-05-23T18:36:46.720Z,98919.45
2023-05-23T18:39:48.384Z,98919.95
2023-05-23T18:42:50.276Z,98924.36
2023-05-23T18:45:51.950Z,98929.33
2023-05-23T18:48:53.895Z,98930.95
2023-05-23T18:51:55.624Z,98934.58
2023-05-23T18:54:57.372Z,98934.01
2023-05-23T18:57:59.242Z,98938.98
2023-05-23T19:01:01.675Z,98943.52
2023-05-23T19:04:03.608Z,98946.17
2023-05-23T19:07:05.241Z,98948.50
2023-05-23T19:10:07.679Z,98952.34
2023-05-23T19:13:10.129Z,98953.89
2023-05-23T19:16:11.937Z,98949.71
2023-05-23T19:19:13.714Z,98955.45
2023-05-23T19:22:15.454Z,98952.65
2023-05-23T19:25:20.751Z,98950.54
2023-05-23T19:28:23.337Z,98957.76
2023-05-23T19:31:25.391Z,98955.67
2023-05-23T19:34:27.505Z,98954.84
2023-05-23T19:37:30.236Z,98957.62
2023-05-23T19:40:32.066Z,98957.08
2023-05-23T19:43:33.740Z,98957.73
2023-05-23T19:46:35.712Z,98958.39
2023-05-23T19:49:37.980Z,98960.33
2023-05-23T19:52:40.823Z,98959.61
2023-05-23T19:55:42.738Z,98960.35
2023-05-23T19:58:44.618Z,98961.28
2023-05-23T20:01:46.321Z,98959.17
2023-05-23T20:04:48.387Z,98963.30
2023-05-23T20:07:50.330Z,98966.50
2023-05-23T20:10:51.943Z,98967.21
2023-05-23T20:13:53.915Z,98969.58
2023-05-23T20:16:56.207Z,98974.48
2023-05-23T20:19:57.961Z,98969.44
2023-05-23T20:22:59.594Z,98972.71
2023-05-23T20:26:01.262Z,98975.17
2023-05-23T20:29:03.145Z,98974.73
2023-05-23T20:32:05.126Z,98974.02
2023-05-23T20:35:06.930Z,98976.22
2023-05-23T20:38:08.478Z,98982.39
2023-05-23T20:41:10.474Z,98987.59
2023-05-23T20:44:12.365Z,98991.55
2023-05-23T20:47:14.122Z,98987.69
2023-05-23T20:50:15.804Z,98990.30
2023-05-23T20:53:17.600Z,98991.34
2023-05-23T20:56:19.227Z,98996.41
2023-05-23T20:59:21.370Z,98997.75
2023-05-23T21:02:23.037Z,99000.19
2023-05-23T21:05:24.910Z,99001.10
2023-05-23T21:08:26.654Z,99002.34
2023-05-23T21:11:28.280Z,99006.27
2023-05-23T21:14:29.842Z,99007.50
2023-05-23T21:17:31.504Z,99009.64
2023-05-23T21:20:33.159Z,99010.91
2023-05-23T21:23:34.888Z,99009.15
2023-05-23T21:26:36.514Z,99005.38
2023-05-23T21:29:38.047Z,99006.60
2023-05-23T21:32:39.960Z,99011.36
2023-05-23T21:35:41.815Z,99011.06
2023-05-23T21:38:44.109Z,99009.27
2023-05-23T21:41:45.845Z,99010.27
2023-05-23T21:44:47.575Z,99010.31
2023-05-23T21:47:49.294Z,99010.52
2023-05-23T21:50:50.894Z,99011.50
2023-05-23T21:53:52.685Z,99013.02
2023-05-23T21:56:54.326Z,99012.57
2023-05-23T21:59:55.966Z,99010.31
2023-05-23T22:02:57.812Z,99008.17
2023-05-23T22:05:59.741Z,99008.23
2023-05-23T22:09:01.428Z,99013.13
2023-05-23T22:12:03.374Z,99013.93
2023-05-23T22:15:06.216Z,99015.98
2023-05-23T22:18:08.065Z,99016.40
2023-05-23T22:21:09.837Z,99020.61
2023-05-23T22:24:11.403Z,99021.08
2023-05-23T22:27:13.074Z,99023.80
2023-05-23T22:30:14.985Z,99027.12
2023-05-23T22:33:16.545Z,99023.44
2023-05-23T22:36:18.323Z,99025.27
2023-05-23T22:39:20.015Z,99021.30
2023-05-23T22:42:21.763Z,99024.63
2023-05-23T22:45:23.430Z,99024.76
2023-05-23T22:48:25.067Z,99025.77
2023-05-23T22:51:26.748Z,99026.87
2023-05-23T22:54:28.448Z,99026.75
2023-05-23T22:57:30.069Z,99025.60
2023-05-23T23:00:31.818Z,99025.44
2023-05-23T23:03:35.496Z,99024.48
2023-05-23T23:06:37.856Z,99024.38
2023-05-23T23:09:39.408Z,99023.94
2023-05-23T23:12:41.128Z,99030.36
2023-05-23T23:15:43.148Z,99032.66
2023-05-23T23:18:45.479Z,99032.65
2023-05-23T23:21:47.309Z,99031.17
2023-05-23T23:24:49.021Z,99031.92
2023-05-23T23:27:50.850Z,99027.80
2023-05-23T23:30:52.552Z,99028.89
2023-05-23T23:33:54.160Z,99028.63
2023-05-23T23:36:55.856Z,99029.48
2023-05-23T23:39:57.535Z,99031.30
2023-05-23T23:42:59.114Z,99026.77
2023-05-23T23:46:00.817Z,99028.82
2023-05-23T23:49:02.517Z,99027.86
2023-05-23T23:52:04.412Z,99029.24
2023-05-23T23:55:06.580Z,99030.72
2023-05-23T23:58:08.261Z,99030.66
